LFRQ/UIP METAR and TAF weather

Enter ICAO airport designator
Station Type Date Time Source
LFRQ METAR 2022/01/18 07:30 UTC NOAA

LFRQ 180730Z AUTO VRB01KT 9999 BKN008 OVC012 04/04 Q1036 TEMPO 3000 BR BKN003


Station Type Date Time Source
LFRQ Decoded METAR 2022/01/18 07:30 UTC NOAA

Quimper, France (LFRQ) 47-58N 004-10W 94M
Jan 18, 2022 - 02:30 AM EST / 2022.01.18 0730 UTC
Wind: Variable at 1 MPH (1 KT):0
Visibility: greater than 7 mile(s):0
Sky conditions: overcast
Temperature: 39 F (4 C)
Dew Point: 39 F (4 C)
Relative Humidity: 100%
Pressure (altimeter): 30.59 in. Hg (1036 hPa)
ob: LFRQ 180730Z AUTO VRB01KT 9999 BKN008 OVC012 04/04 Q1036 TEMPO 3000 BR BKN003
cycle: 7

Station Type Date Time Source
LFRQ TAF 2022/01/18 06:22 UTC NOAA

TAF LFRQ 180500Z 1806/1906 10004KT 9999 OVC012
TEMPO 1806/1808 3000 BR BKN008
BECMG 1811/1813 SCT018 BKN025
TEMPO 1815/1820 -RA BKN013 PROB30
TEMPO 1820/1824 BKN012

Example: see airport list